sensor_id;sensor_type;location;lat;lon;timestamp;temperature;humidity
21214;DHT22;10764;50.850;2.904;2023-02-01T00:02:14;17.70;55.60
21214;DHT22;10764;50.850;2.904;2023-02-01T00:04:41;18.50;56.00
21214;DHT22;10764;50.850;2.904;2023-02-01T00:07:07;17.50;55.50
21214;DHT22;10764;50.850;2.904;2023-02-01T00:09:34;17.90;55.70
21214;DHT22;10764;50.850;2.904;2023-02-01T00:12:02;18.00;55.80
21214;DHT22;10764;50.850;2.904;2023-02-01T00:14:30;16.90;55.20
21214;DHT22;10764;50.850;2.904;2023-02-01T00:16:56;17.20;55.40
21214;DHT22;10764;50.850;2.904;2023-02-01T00:19:23;17.40;55.50
21214;DHT22;10764;50.850;2.904;2023-02-01T00:21:50;17.60;55.60
21214;DHT22;10764;50.850;2.904;2023-02-01T00:24:17;17.40;55.50
21214;DHT22;10764;50.850;2.904;2023-02-01T00:26:45;18.20;55.90
21214;DHT22;10764;50.850;2.904;2023-02-01T00:29:15;16.90;55.20
21214;DHT22;10764;50.850;2.904;2023-02-01T00:31:43;18.50;56.00
21214;DHT22;10764;50.850;2.904;2023-02-01T00:34:15;18.10;55.80
21214;DHT22;10764;50.850;2.904;2023-02-01T00:36:43;17.40;55.50
21214;DHT22;10764;50.850;2.904;2023-02-01T00:39:10;18.20;55.90
21214;DHT22;10764;50.850;2.904;2023-02-01T00:41:37;17.50;55.60
21214;DHT22;10764;50.850;2.904;2023-02-01T00:44:04;17.00;55.30
21214;DHT22;10764;50.850;2.904;2023-02-01T00:46:31;18.30;55.90
21214;DHT22;10764;50.850;2.904;2023-02-01T00:48:58;17.50;55.60
21214;DHT22;10764;50.850;2.904;2023-02-01T00:51:27;17.60;55.70
21214;DHT22;10764;50.850;2.904;2023-02-01T00:53:55;17.60;55.70
21214;DHT22;10764;50.850;2.904;2023-02-01T00:56:22;17.50;55.60
21214;DHT22;10764;50.850;2.904;2023-02-01T00:58:49;18.50;56.10
21214;DHT22;10764;50.850;2.904;2023-02-01T01:01:22;17.00;55.40
21214;DHT22;10764;50.850;2.904;2023-02-01T01:03:52;19.00;56.30
21214;DHT22;10764;50.850;2.904;2023-02-01T01:06:22;17.10;55.40
21214;DHT22;10764;50.850;2.904;2023-02-01T01:08:51;16.20;55.00
21214;DHT22;10764;50.850;2.904;2023-02-01T01:11:23;18.50;56.20
21214;DHT22;10764;50.850;2.904;2023-02-01T01:13:52;17.50;55.60
21214;DHT22;10764;50.850;2.904;2023-02-01T01:16:20;18.70;56.20
21214;DHT22;10764;50.850;2.904;2023-02-01T01:18:48;17.60;55.70
21214;DHT22;10764;50.850;2.904;2023-02-01T01:21:16;18.10;56.00
21214;DHT22;10764;50.850;2.904;2023-02-01T01:23:44;17.20;55.50
21214;DHT22;10764;50.850;2.904;2023-02-01T01:26:20;17.30;55.50
21214;DHT22;10764;50.850;2.904;2023-02-01T01:28:47;17.00;55.40
21214;DHT22;10764;50.850;2.904;2023-02-01T01:31:16;17.60;55.80
21214;DHT22;10764;50.850;2.904;2023-02-01T01:33:44;19.00;56.40
21214;DHT22;10764;50.850;2.904;2023-02-01T01:36:14;17.70;55.70
21214;DHT22;10764;50.850;2.904;2023-02-01T01:38:41;17.40;55.60
21214;DHT22;10764;50.850;2.904;2023-02-01T01:41:15;17.00;55.40
21214;DHT22;10764;50.850;2.904;2023-02-01T01:43:51;18.60;56.20
21214;DHT22;10764;50.850;2.904;2023-02-01T01:46:24;17.00;55.50
21214;DHT22;10764;50.850;2.904;2023-02-01T01:48:56;17.00;55.50
21214;DHT22;10764;50.850;2.904;2023-02-01T01:51:27;18.80;56.30
21214;DHT22;10764;50.850;2.904;2023-02-01T01:54:20;17.00;55.50
21214;DHT22;10764;50.850;2.904;2023-02-01T01:56:52;17.00;55.50
21214;DHT22;10764;50.850;2.904;2023-02-01T01:59:21;17.60;55.80
21214;DHT22;10764;50.850;2.904;2023-02-01T02:01:49;18.70;56.30
21214;DHT22;10764;50.850;2.904;2023-02-01T02:04:17;18.30;56.10
21214;DHT22;10764;50.850;2.904;2023-02-01T02:06:55;17.00;55.50
21214;DHT22;10764;50.850;2.904;2023-02-01T02:09:24;18.40;56.20
21214;DHT22;10764;50.850;2.904;2023-02-01T02:11:50;17.90;55.90
21214;DHT22;10764;50.850;2.904;2023-02-01T02:14:20;18.20;56.10
21214;DHT22;10764;50.850;2.904;2023-02-01T02:26:08;17.00;55.50
21214;DHT22;10764;50.850;2.904;2023-02-01T02:29:00;17.00;55.50
21214;DHT22;10764;50.850;2.904;2023-02-01T02:34:55;17.00;55.50
21214;DHT22;10764;50.850;2.904;2023-02-01T02:37:45;17.00;55.50
21214;DHT22;10764;50.850;2.904;2023-02-01T02:40:19;17.00;55.50
21214;DHT22;10764;50.850;2.904;2023-02-01T02:42:58;17.70;55.80
21214;DHT22;10764;50.850;2.904;2023-02-01T02:45:51;17.00;55.40
21214;DHT22;10764;50.850;2.904;2023-02-01T02:48:51;17.40;55.60
21214;DHT22;10764;50.850;2.904;2023-02-01T02:51:29;18.20;56.00
21214;DHT22;10764;50.850;2.904;2023-02-01T02:54:24;18.10;55.90
21214;DHT22;10764;50.850;2.904;2023-02-01T02:57:20;17.00;55.40
21214;DHT22;10764;50.850;2.904;2023-02-01T03:00:13;17.00;55.40
21214;DHT22;10764;50.850;2.904;2023-02-01T03:03:00;17.00;55.40
21214;DHT22;10764;50.850;2.904;2023-02-01T03:05:47;17.00;55.40
21214;DHT22;10764;50.850;2.904;2023-02-01T03:08:20;17.50;55.60
21214;DHT22;10764;50.850;2.904;2023-02-01T03:11:08;18.30;56.00
21214;DHT22;10764;50.850;2.904;2023-02-01T03:16:23;17.00;55.30
21214;DHT22;10764;50.850;2.904;2023-02-01T03:19:05;17.00;55.30
21214;DHT22;10764;50.850;2.904;2023-02-01T03:21:40;17.00;55.30
21214;DHT22;10764;50.850;2.904;2023-02-01T03:24:16;15.90;54.80
21214;DHT22;10764;50.850;2.904;2023-02-01T03:26:53;17.00;55.30
21214;DHT22;10764;50.850;2.904;2023-02-01T03:29:24;17.20;55.40
21214;DHT22;10764;50.850;2.904;2023-02-01T03:31:52;18.50;56.00
21214;DHT22;10764;50.850;2.904;2023-02-01T03:34:19;18.40;55.90
21214;DHT22;10764;50.850;2.904;2023-02-01T03:36:50;19.10;56.30
21214;DHT22;10764;50.850;2.904;2023-02-01T03:39:47;17.10;55.30
21214;DHT22;10764;50.850;2.904;2023-02-01T03:42:19;17.00;55.30
21214;DHT22;10764;50.850;2.904;2023-02-01T03:44:53;19.00;56.20
21214;DHT22;10764;50.850;2.904;2023-02-01T03:47:27;18.70;56.10
21214;DHT22;10764;50.850;2.904;2023-02-01T03:50:02;17.00;55.20
21214;DHT22;10764;50.850;2.904;2023-02-01T03:52:44;17.00;55.20
21214;DHT22;10764;50.850;2.904;2023-02-01T03:55:16;17.00;55.20
21214;DHT22;10764;50.850;2.904;2023-02-01T03:57:53;17.00;55.30
21214;DHT22;10764;50.850;2.904;2023-02-01T04:00:25;17.00;55.20
21214;DHT22;10764;50.850;2.904;2023-02-01T04:02:55;17.00;55.20
21214;DHT22;10764;50.850;2.904;2023-02-01T04:05:22;17.90;55.70
21214;DHT22;10764;50.850;2.904;2023-02-01T04:08:16;17.80;55.60
21214;DHT22;10764;50.850;2.904;2023-02-01T04:10:44;18.00;55.70
21214;DHT22;10764;50.850;2.904;2023-02-01T04:13:11;17.70;55.60
21214;DHT22;10764;50.850;2.904;2023-02-01T04:15:39;17.20;55.30
21214;DHT22;10764;50.850;2.904;2023-02-01T04:18:05;18.60;56.00
21214;DHT22;10764;50.850;2.904;2023-02-01T04:20:32;17.50;55.40
21214;DHT22;10764;50.850;2.904;2023-02-01T04:22:59;17.40;55.40
21214;DHT22;10764;50.850;2.904;2023-02-01T04:25:29;17.00;55.20
21214;DHT22;10764;50.850;2.904;2023-02-01T04:27:56;17.70;55.50
21214;DHT22;10764;50.850;2.904;2023-02-01T04:30:23;18.10;55.70
21214;DHT22;10764;50.850;2.904;2023-02-01T04:32:50;17.60;55.40
21214;DHT22;10764;50.850;2.904;2023-02-01T04:35:17;17.40;55.30
21214;DHT22;10764;50.850;2.904;2023-02-01T04:37:44;17.00;55.20
21214;DHT22;10764;50.850;2.904;2023-02-01T04:40:11;17.80;55.60
21214;DHT22;10764;50.850;2.904;2023-02-01T04:42:38;17.00;55.10
21214;DHT22;10764;50.850;2.904;2023-02-01T04:45:06;17.80;55.60
21214;DHT22;10764;50.850;2.904;2023-02-01T04:47:32;17.00;55.10
21214;DHT22;10764;50.850;2.904;2023-02-01T04:50:00;17.20;55.20
21214;DHT22;10764;50.850;2.904;2023-02-01T04:52:27;17.20;55.10
21214;DHT22;10764;50.850;2.904;2023-02-01T04:54:54;18.10;55.50
21214;DHT22;10764;50.850;2.904;2023-02-01T04:57:25;16.90;54.90
21214;DHT22;10764;50.850;2.904;2023-02-01T04:59:52;17.40;55.10
21214;DHT22;10764;50.850;2.904;2023-02-01T05:02:18;17.00;54.90
21214;DHT22;10764;50.850;2.904;2023-02-01T05:04:45;18.10;55.40
21214;DHT22;10764;50.850;2.904;2023-02-01T05:07:12;17.80;55.20
21214;DHT22;10764;50.850;2.904;2023-02-01T05:09:39;17.00;54.80
21214;DHT22;10764;50.850;2.904;2023-02-01T05:12:05;18.80;55.60
21214;DHT22;10764;50.850;2.904;2023-02-01T05:14:51;16.90;54.70
21214;DHT22;10764;50.850;2.904;2023-02-01T05:17:19;16.80;54.60
21214;DHT22;10764;50.850;2.904;2023-02-01T05:19:45;16.90;54.60
21214;DHT22;10764;50.850;2.904;2023-02-01T05:22:12;18.50;55.50
21214;DHT22;10764;50.850;2.904;2023-02-01T05:24:39;18.40;55.30
21214;DHT22;10764;50.850;2.904;2023-02-01T05:27:06;17.30;54.80
21214;DHT22;10764;50.850;2.904;2023-02-01T05:29:32;18.70;55.50
21214;DHT22;10764;50.850;2.904;2023-02-01T05:31:59;18.30;55.30
21214;DHT22;10764;50.850;2.904;2023-02-01T05:34:37;17.10;54.80
21214;DHT22;10764;50.850;2.904;2023-02-01T05:37:04;18.40;55.30
21214;DHT22;10764;50.850;2.904;2023-02-01T05:39:32;17.40;54.80
21214;DHT22;10764;50.850;2.904;2023-02-01T05:41:58;16.80;54.60
21214;DHT22;10764;50.850;2.904;2023-02-01T05:44:25;17.50;54.90
21214;DHT22;10764;50.850;2.904;2023-02-01T05:46:53;18.40;55.30
21214;DHT22;10764;50.850;2.904;2023-02-01T05:49:21;18.70;55.50
21214;DHT22;10764;50.850;2.904;2023-02-01T05:51:49;18.70;55.50
21214;DHT22;10764;50.850;2.904;2023-02-01T05:54:15;18.50;55.40
21214;DHT22;10764;50.850;2.904;2023-02-01T05:56:42;17.00;54.60
21214;DHT22;10764;50.850;2.904;2023-02-01T05:59:09;18.60;55.40
21214;DHT22;10764;50.850;2.904;2023-02-01T06:01:38;16.80;54.50
21214;DHT22;10764;50.850;2.904;2023-02-01T06:04:04;16.80;54.60
21214;DHT22;10764;50.850;2.904;2023-02-01T06:06:31;17.70;55.00
21214;DHT22;10764;50.850;2.904;2023-02-01T06:08:58;17.70;54.90
21214;DHT22;10764;50.850;2.904;2023-02-01T06:11:26;17.50;54.80
21214;DHT22;10764;50.850;2.904;2023-02-01T06:14:01;18.60;55.40
21214;DHT22;10764;50.850;2.904;2023-02-01T06:16:28;17.80;55.00
21214;DHT22;10764;50.850;2.904;2023-02-01T06:18:55;17.40;54.70
21214;DHT22;10764;50.850;2.904;2023-02-01T06:21:21;17.70;54.90
21214;DHT22;10764;50.850;2.904;2023-02-01T06:23:52;17.40;54.70
21214;DHT22;10764;50.850;2.904;2023-02-01T06:26:19;17.10;54.50
21214;DHT22;10764;50.850;2.904;2023-02-01T06:28:46;18.40;55.20
21214;DHT22;10764;50.850;2.904;2023-02-01T06:31:13;18.90;55.40
21214;DHT22;10764;50.850;2.904;2023-02-01T06:33:40;18.00;54.90
21214;DHT22;10764;50.850;2.904;2023-02-01T06:36:10;18.70;55.20
21214;DHT22;10764;50.850;2.904;2023-02-01T06:38:38;17.10;54.40
21214;DHT22;10764;50.850;2.904;2023-02-01T06:41:06;16.90;54.30
21214;DHT22;10764;50.850;2.904;2023-02-01T06:43:33;17.30;54.40
21214;DHT22;10764;50.850;2.904;2023-02-01T06:46:05;17.00;54.30
21214;DHT22;10764;50.850;2.904;2023-02-01T06:48:32;16.70;54.10
21214;DHT22;10764;50.850;2.904;2023-02-01T06:51:00;16.80;54.10
21214;DHT22;10764;50.850;2.904;2023-02-01T06:53:27;16.70;54.10
21214;DHT22;10764;50.850;2.904;2023-02-01T06:55:55;18.40;54.90
21214;DHT22;10764;50.850;2.904;2023-02-01T06:58:23;17.30;54.30
21214;DHT22;10764;50.850;2.904;2023-02-01T07:00:49;19.00;55.10
21214;DHT22;10764;50.850;2.904;2023-02-01T07:03:17;18.20;54.80
21214;DHT22;10764;50.850;2.904;2023-02-01T07:05:44;17.60;54.50
21214;DHT22;10764;50.850;2.904;2023-02-01T07:08:11;18.20;54.80
21214;DHT22;10764;50.850;2.904;2023-02-01T07:10:38;18.70;55.00
21214;DHT22;10764;50.850;2.904;2023-02-01T07:13:05;18.20;54.80
21214;DHT22;10764;50.850;2.904;2023-02-01T07:15:32;17.60;54.60
21214;DHT22;10764;50.850;2.904;2023-02-01T07:17:58;17.30;54.40
21214;DHT22;10764;50.850;2.904;2023-02-01T07:20:25;18.10;54.80
21214;DHT22;10764;50.850;2.904;2023-02-01T07:22:56;18.50;54.90
21214;DHT22;10764;50.850;2.904;2023-02-01T07:25:24;16.70;54.00
21214;DHT22;10764;50.850;2.904;2023-02-01T07:27:52;16.80;54.10
21214;DHT22;10764;50.850;2.904;2023-02-01T07:30:18;18.40;55.10
21214;DHT22;10764;50.850;2.904;2023-02-01T07:32:45;16.70;54.10
21214;DHT22;10764;50.850;2.904;2023-02-01T07:35:12;17.60;54.40
21214;DHT22;10764;50.850;2.904;2023-02-01T07:37:40;17.30;54.20
21214;DHT22;10764;50.850;2.904;2023-02-01T07:40:08;18.50;54.80
21214;DHT22;10764;50.850;2.904;2023-02-01T07:42:35;16.80;53.90
21214;DHT22;10764;50.850;2.904;2023-02-01T07:45:02;18.50;54.80
21214;DHT22;10764;50.850;2.904;2023-02-01T07:47:50;16.90;54.10
21214;DHT22;10764;50.850;2.904;2023-02-01T07:50:18;18.90;55.10
21214;DHT22;10764;50.850;2.904;2023-02-01T07:52:48;17.90;54.70
21214;DHT22;10764;50.850;2.904;2023-02-01T07:55:16;17.50;54.50
21214;DHT22;10764;50.850;2.904;2023-02-01T07:57:43;17.70;54.60
21214;DHT22;10764;50.850;2.904;2023-02-01T08:00:11;16.90;54.20
21214;DHT22;10764;50.850;2.904;2023-02-01T08:03:00;16.90;54.30
21214;DHT22;10764;50.850;2.904;2023-02-01T08:05:27;17.40;54.90
21214;DHT22;10764;50.850;2.904;2023-02-01T08:07:54;17.60;55.20
21214;DHT22;10764;50.850;2.904;2023-02-01T08:10:21;17.80;55.50
21214;DHT22;10764;50.850;2.904;2023-02-01T08:12:48;16.90;55.10
21214;DHT22;10764;50.850;2.904;2023-02-01T08:15:15;18.50;56.00
21214;DHT22;10764;50.850;2.904;2023-02-01T08:17:49;17.00;55.20
21214;DHT22;10764;50.850;2.904;2023-02-01T08:20:18;18.70;56.00
21214;DHT22;10764;50.850;2.904;2023-02-01T08:22:45;16.90;55.10
21214;DHT22;10764;50.850;2.904;2023-02-01T08:25:12;17.60;55.30
21214;DHT22;10764;50.850;2.904;2023-02-01T08:27:41;16.90;55.10
21214;DHT22;10764;50.850;2.904;2023-02-01T08:30:09;19.30;56.00
21214;DHT22;10764;50.850;2.904;2023-02-01T08:32:36;16.90;54.80
21214;DHT22;10764;50.850;2.904;2023-02-01T08:35:04;17.50;55.20
21214;DHT22;10764;50.850;2.904;2023-02-01T08:37:31;17.00;54.60
21214;DHT22;10764;50.850;2.904;2023-02-01T08:39:58;18.50;55.40
21214;DHT22;10764;50.850;2.904;2023-02-01T08:42:25;18.00;55.90
21214;DHT22;10764;50.850;2.904;2023-02-01T08:45:10;18.60;55.60
21214;DHT22;10764;50.850;2.904;2023-02-01T08:47:39;17.10;55.00
21214;DHT22;10764;50.850;2.904;2023-02-01T08:50:07;17.90;55.30
21214;DHT22;10764;50.850;2.904;2023-02-01T08:52:34;17.20;54.90
21214;DHT22;10764;50.850;2.904;2023-02-01T08:55:04;17.20;54.80
21214;DHT22;10764;50.850;2.904;2023-02-01T08:57:32;17.10;54.60
21214;DHT22;10764;50.850;2.904;2023-02-01T08:59:59;15.90;54.00
21214;DHT22;10764;50.850;2.904;2023-02-01T09:02:26;18.80;55.30
21214;DHT22;10764;50.850;2.904;2023-02-01T09:04:53;17.50;54.60
21214;DHT22;10764;50.850;2.904;2023-02-01T09:07:22;19.00;55.90
21214;DHT22;10764;50.850;2.904;2023-02-01T09:09:49;18.40;54.80
21214;DHT22;10764;50.850;2.904;2023-02-01T09:12:16;17.10;54.10
21214;DHT22;10764;50.850;2.904;2023-02-01T09:14:42;19.00;55.00
21214;DHT22;10764;50.850;2.904;2023-02-01T09:17:11;17.10;54.40
21214;DHT22;10764;50.850;2.904;2023-02-01T09:19:40;18.10;54.70
21214;DHT22;10764;50.850;2.904;2023-02-01T09:22:08;19.50;55.50
21214;DHT22;10764;50.850;2.904;2023-02-01T09:24:35;19.30;55.10
21214;DHT22;10764;50.850;2.904;2023-02-01T09:27:02;19.30;55.20
21214;DHT22;10764;50.850;2.904;2023-02-01T09:29:31;19.20;55.10
21214;DHT22;10764;50.850;2.904;2023-02-01T09:31:58;17.20;54.30
21214;DHT22;10764;50.850;2.904;2023-02-01T09:34:30;19.20;54.80
21214;DHT22;10764;50.850;2.904;2023-02-01T09:36:57;17.20;53.80
21214;DHT22;10764;50.850;2.904;2023-02-01T09:39:24;18.80;54.50
21214;DHT22;10764;50.850;2.904;2023-02-01T09:47:46;17.20;53.80
21214;DHT22;10764;50.850;2.904;2023-02-01T09:50:28;17.20;53.90
21214;DHT22;10764;50.850;2.904;2023-02-01T09:55:57;17.30;53.90
21214;DHT22;10764;50.850;2.904;2023-02-01T09:58:51;19.60;55.10
21214;DHT22;10764;50.850;2.904;2023-02-01T10:01:24;17.20;53.80
21214;DHT22;10764;50.850;2.904;2023-02-01T10:04:13;18.20;54.40
21214;DHT22;10764;50.850;2.904;2023-02-01T10:15:28;17.30;53.60
21214;DHT22;10764;50.850;2.904;2023-02-01T10:20:44;18.30;54.30
21214;DHT22;10764;50.850;2.904;2023-02-01T10:28:36;17.30;53.60
21214;DHT22;10764;50.850;2.904;2023-02-01T10:31:08;17.50;53.50
21214;DHT22;10764;50.850;2.904;2023-02-01T10:33:46;19.00;54.30
21214;DHT22;10764;50.850;2.904;2023-02-01T10:36:21;17.30;53.30
21214;DHT22;10764;50.850;2.904;2023-02-01T10:38:49;17.30;53.30
21214;DHT22;10764;50.850;2.904;2023-02-01T10:41:23;17.30;53.30
21214;DHT22;10764;50.850;2.904;2023-02-01T10:43:55;17.70;53.40
21214;DHT22;10764;50.850;2.904;2023-02-01T10:46:23;17.80;53.50
21214;DHT22;10764;50.850;2.904;2023-02-01T10:48:52;17.30;53.10
21214;DHT22;10764;50.850;2.904;2023-02-01T10:51:30;17.30;53.10
21214;DHT22;10764;50.850;2.904;2023-02-01T10:54:18;19.30;54.10
21214;DHT22;10764;50.850;2.904;2023-02-01T10:56:48;17.30;53.10
21214;DHT22;10764;50.850;2.904;2023-02-01T10:59:18;17.30;53.10
21214;DHT22;10764;50.850;2.904;2023-02-01T11:01:49;18.50;53.60
21214;DHT22;10764;50.850;2.904;2023-02-01T11:04:20;17.40;53.00
21214;DHT22;10764;50.850;2.904;2023-02-01T11:07:25;17.30;52.90
21214;DHT22;10764;50.850;2.904;2023-02-01T11:09:54;17.30;52.90
21214;DHT22;10764;50.850;2.904;2023-02-01T11:12:29;19.00;53.70
21214;DHT22;10764;50.850;2.904;2023-02-01T11:15:01;17.30;52.90
21214;DHT22;10764;50.850;2.904;2023-02-01T11:17:38;18.90;53.60
21214;DHT22;10764;50.850;2.904;2023-02-01T11:20:17;17.30;52.80
21214;DHT22;10764;50.850;2.904;2023-02-01T11:22:55;17.30;52.70
21214;DHT22;10764;50.850;2.904;2023-02-01T11:25:23;19.10;53.60
21214;DHT22;10764;50.850;2.904;2023-02-01T11:27:54;17.30;52.80
21214;DHT22;10764;50.850;2.904;2023-02-01T11:30:38;17.40;52.80
21214;DHT22;10764;50.850;2.904;2023-02-01T11:33:13;17.30;52.60
21214;DHT22;10764;50.850;2.904;2023-02-01T11:35:42;18.30;53.10
21214;DHT22;10764;50.850;2.904;2023-02-01T11:38:30;17.30;52.60
21214;DHT22;10764;50.850;2.904;2023-02-01T11:41:12;17.30;52.60
21214;DHT22;10764;50.850;2.904;2023-02-01T11:44:00;17.30;52.50
21214;DHT22;10764;50.850;2.904;2023-02-01T11:46:30;18.50;53.10
21214;DHT22;10764;50.850;2.904;2023-02-01T11:49:18;17.70;52.70
21214;DHT22;10764;50.850;2.904;2023-02-01T12:16:50;17.40;52.40
21214;DHT22;10764;50.850;2.904;2023-02-01T12:19:23;17.30;52.40
21214;DHT22;10764;50.850;2.904;2023-02-01T12:28:36;17.40;52.60
21214;DHT22;10764;50.850;2.904;2023-02-01T12:34:11;17.30;52.50
21214;DHT22;10764;50.850;2.904;2023-02-01T12:43:36;17.30;52.70
21214;DHT22;10764;50.850;2.904;2023-02-01T12:46:05;17.30;52.70
21214;DHT22;10764;50.850;2.904;2023-02-01T12:48:38;17.30;52.70
21214;DHT22;10764;50.850;2.904;2023-02-01T12:51:32;17.30;52.80
21214;DHT22;10764;50.850;2.904;2023-02-01T12:54:08;17.30;52.80
21214;DHT22;10764;50.850;2.904;2023-02-01T12:57:05;19.00;53.60
21214;DHT22;10764;50.850;2.904;2023-02-01T12:59:39;17.30;52.80
21214;DHT22;10764;50.850;2.904;2023-02-01T13:07:38;17.30;52.90
21214;DHT22;10764;50.850;2.904;2023-02-01T13:10:42;17.30;52.90
21214;DHT22;10764;50.850;2.904;2023-02-01T13:13:26;17.30;52.90
21214;DHT22;10764;50.850;2.904;2023-02-01T13:16:03;17.30;52.90
21214;DHT22;10764;50.850;2.904;2023-02-01T13:18:37;17.40;52.90
21214;DHT22;10764;50.850;2.904;2023-02-01T13:21:15;18.10;53.30
21214;DHT22;10764;50.850;2.904;2023-02-01T13:23:46;17.60;53.00
21214;DHT22;10764;50.850;2.904;2023-02-01T13:26:14;17.30;52.90
21214;DHT22;10764;50.850;2.904;2023-02-01T13:28:59;18.80;53.70
21214;DHT22;10764;50.850;2.904;2023-02-01T13:37:43;17.30;52.90
21214;DHT22;10764;50.850;2.904;2023-02-01T13:40:31;17.30;52.90
21214;DHT22;10764;50.850;2.904;2023-02-01T13:43:27;17.30;52.80
21214;DHT22;10764;50.850;2.904;2023-02-01T13:46:04;17.50;52.90
21214;DHT22;10764;50.850;2.904;2023-02-01T13:48:45;17.70;53.00
21214;DHT22;10764;50.850;2.904;2023-02-01T13:51:13;17.40;52.80
21214;DHT22;10764;50.850;2.904;2023-02-01T13:53:46;18.80;53.50
21214;DHT22;10764;50.850;2.904;2023-02-01T13:56:19;17.80;52.90
21214;DHT22;10764;50.850;2.904;2023-02-01T13:58:47;18.40;53.20
21214;DHT22;10764;50.850;2.904;2023-02-01T14:03:58;17.40;52.70
21214;DHT22;10764;50.850;2.904;2023-02-01T14:11:37;17.40;52.60
21214;DHT22;10764;50.850;2.904;2023-02-01T14:19:24;17.40;52.60
21214;DHT22;10764;50.850;2.904;2023-02-01T14:21:59;17.40;52.60
21214;DHT22;10764;50.850;2.904;2023-02-01T14:24:33;18.10;52.90
21214;DHT22;10764;50.850;2.904;2023-02-01T14:27:06;17.40;52.60
21214;DHT22;10764;50.850;2.904;2023-02-01T14:29:56;17.40;52.60
21214;DHT22;10764;50.850;2.904;2023-02-01T14:32:30;17.30;52.60
21214;DHT22;10764;50.850;2.904;2023-02-01T14:35:00;17.30;52.60
21214;DHT22;10764;50.850;2.904;2023-02-01T14:37:32;17.30;52.70
21214;DHT22;10764;50.850;2.904;2023-02-01T14:40:04;18.00;53.10
21214;DHT22;10764;50.850;2.904;2023-02-01T14:47:51;17.30;52.80
21214;DHT22;10764;50.850;2.904;2023-02-01T14:53:14;17.30;52.80
21214;DHT22;10764;50.850;2.904;2023-02-01T14:58:47;17.30;52.90
21214;DHT22;10764;50.850;2.904;2023-02-01T15:01:34;17.30;52.90
21214;DHT22;10764;50.850;2.904;2023-02-01T15:04:15;17.20;52.80
21214;DHT22;10764;50.850;2.904;2023-02-01T15:06:52;17.30;52.90
21214;DHT22;10764;50.850;2.904;2023-02-01T15:09:32;17.30;52.90
21214;DHT22;10764;50.850;2.904;2023-02-01T15:15:02;17.20;52.80
21214;DHT22;10764;50.850;2.904;2023-02-01T15:17:31;17.20;52.80
21214;DHT22;10764;50.850;2.904;2023-02-01T15:20:27;17.20;52.80
21214;DHT22;10764;50.850;2.904;2023-02-01T15:23:05;17.20;52.80
21214;DHT22;10764;50.850;2.904;2023-02-01T15:25:37;17.20;52.80
21214;DHT22;10764;50.850;2.904;2023-02-01T15:28:08;17.20;52.90
21214;DHT22;10764;50.850;2.904;2023-02-01T15:30:39;17.30;53.00
21214;DHT22;10764;50.850;2.904;2023-02-01T15:33:17;17.40;53.00
21214;DHT22;10764;50.850;2.904;2023-02-01T15:35:50;17.30;52.90
21214;DHT22;10764;50.850;2.904;2023-02-01T15:41:17;17.20;52.90
21214;DHT22;10764;50.850;2.904;2023-02-01T15:46:38;17.20;52.90
21214;DHT22;10764;50.850;2.904;2023-02-01T15:49:24;17.30;53.00
21214;DHT22;10764;50.850;2.904;2023-02-01T15:51:53;17.20;52.90
21214;DHT22;10764;50.850;2.904;2023-02-01T15:54:42;17.20;52.90
21214;DHT22;10764;50.850;2.904;2023-02-01T15:57:20;17.20;52.90
21214;DHT22;10764;50.850;2.904;2023-02-01T15:59:49;17.60;53.10
21214;DHT22;10764;50.850;2.904;2023-02-01T16:02:36;17.80;53.20
21214;DHT22;10764;50.850;2.904;2023-02-01T16:05:35;17.20;52.90
21214;DHT22;10764;50.850;2.904;2023-02-01T16:08:14;17.20;52.90
21214;DHT22;10764;50.850;2.904;2023-02-01T16:10:44;17.20;53.00
21214;DHT22;10764;50.850;2.904;2023-02-01T16:13:12;17.20;52.90
21214;DHT22;10764;50.850;2.904;2023-02-01T16:15:40;17.90;53.40
21214;DHT22;10764;50.850;2.904;2023-02-01T16:18:07;17.20;53.00
21214;DHT22;10764;50.850;2.904;2023-02-01T16:20:38;17.10;52.90
21214;DHT22;10764;50.850;2.904;2023-02-01T16:23:06;18.20;53.50
21214;DHT22;10764;50.850;2.904;2023-02-01T16:25:34;17.20;53.20
21214;DHT22;10764;50.850;2.904;2023-02-01T16:28:01;17.20;53.20
21214;DHT22;10764;50.850;2.904;2023-02-01T16:30:28;17.40;53.30
21214;DHT22;10764;50.850;2.904;2023-02-01T16:32:58;18.30;53.80
21214;DHT22;10764;50.850;2.904;2023-02-01T16:38:12;17.20;53.30
21214;DHT22;10764;50.850;2.904;2023-02-01T16:40:41;17.10;53.40
21214;DHT22;10764;50.850;2.904;2023-02-01T16:43:19;17.10;53.40
21214;DHT22;10764;50.850;2.904;2023-02-01T16:45:48;19.00;54.20
21214;DHT22;10764;50.850;2.904;2023-02-01T16:48:26;18.30;54.00
21214;DHT22;10764;50.850;2.904;2023-02-01T16:51:02;17.90;53.70
21214;DHT22;10764;50.850;2.904;2023-02-01T16:53:30;18.50;54.00
21214;DHT22;10764;50.850;2.904;2023-02-01T16:56:28;18.40;53.90
21214;DHT22;10764;50.850;2.904;2023-02-01T16:58:55;18.40;53.90
21214;DHT22;10764;50.850;2.904;2023-02-01T17:01:23;19.60;54.80
21214;DHT22;10764;50.850;2.904;2023-02-01T17:03:50;19.30;54.40
21214;DHT22;10764;50.850;2.904;2023-02-01T17:06:20;18.80;54.10
21214;DHT22;10764;50.850;2.904;2023-02-01T17:08:51;18.10;53.80
21214;DHT22;10764;50.850;2.904;2023-02-01T17:11:19;17.10;53.40
21214;DHT22;10764;50.850;2.904;2023-02-01T17:13:48;17.20;53.40
21214;DHT22;10764;50.850;2.904;2023-02-01T17:18:41;17.40;53.50
21214;DHT22;10764;50.850;2.904;2023-02-01T17:21:09;18.10;53.80
21214;DHT22;10764;50.850;2.904;2023-02-01T17:23:37;17.30;53.30
21214;DHT22;10764;50.850;2.904;2023-02-01T17:26:04;18.80;54.50
21214;DHT22;10764;50.850;2.904;2023-02-01T17:28:31;18.00;53.70
21214;DHT22;10764;50.850;2.904;2023-02-01T17:30:57;18.60;54.00
21214;DHT22;10764;50.850;2.904;2023-02-01T17:33:32;17.00;53.20
21214;DHT22;10764;50.850;2.904;2023-02-01T17:36:03;17.10;53.30
21214;DHT22;10764;50.850;2.904;2023-02-01T17:38:32;17.10;53.30
21214;DHT22;10764;50.850;2.904;2023-02-01T17:41:00;17.50;53.50
21214;DHT22;10764;50.850;2.904;2023-02-01T17:43:27;17.10;53.30
21214;DHT22;10764;50.850;2.904;2023-02-01T17:46:14;17.50;53.50
21214;DHT22;10764;50.850;2.904;2023-02-01T17:48:42;18.90;54.10
21214;DHT22;10764;50.850;2.904;2023-02-01T17:51:19;17.80;53.60
21214;DHT22;10764;50.850;2.904;2023-02-01T17:53:46;18.00;53.70
21214;DHT22;10764;50.850;2.904;2023-02-01T17:56:20;17.60;53.50
21214;DHT22;10764;50.850;2.904;2023-02-01T17:58:47;17.10;53.30
21214;DHT22;10764;50.850;2.904;2023-02-01T18:01:20;17.40;53.40
21214;DHT22;10764;50.850;2.904;2023-02-01T18:03:48;17.60;53.50
21214;DHT22;10764;50.850;2.904;2023-02-01T18:06:20;18.00;53.70
21214;DHT22;10764;50.850;2.904;2023-02-01T18:08:48;17.60;53.50
21214;DHT22;10764;50.850;2.904;2023-02-01T18:11:17;18.60;54.00
21214;DHT22;10764;50.850;2.904;2023-02-01T18:13:44;17.00;53.20